createdAt,value
2019-04-25T00:00:42.218Z,999.42
2019-04-25T00:01:42.548Z,999.47
2019-04-25T00:02:42.640Z,999.53
2019-04-25T00:03:42.546Z,999.59
2019-04-25T00:04:42.619Z,999.47
2019-04-25T00:05:42.752Z,999.47
2019-04-25T00:06:42.556Z,999.44
2019-04-25T00:07:42.488Z,999.48
2019-04-25T00:08:42.730Z,999.44
2019-04-25T00:09:42.716Z,999.46
2019-04-25T00:10:42.683Z,999.46
2019-04-25T00:11:45.258Z,999.41
2019-04-25T00:12:43.180Z,999.43
2019-04-25T00:13:41.903Z,999.42
2019-04-25T00:14:41.660Z,999.36
2019-04-25T00:15:42.179Z,999.32
2019-04-25T00:16:41.392Z,999.36
2019-04-25T00:17:42.283Z,999.32
2019-04-25T00:18:42.766Z,999.34
2019-04-25T00:19:42.498Z,999.33
2019-04-25T00:20:42.629Z,999.28
2019-04-25T00:21:42.202Z,999.24
2019-04-25T00:22:42.554Z,999.14
2019-04-25T00:23:42.434Z,999.11
2019-04-25T00:24:42.587Z,999.13
2019-04-25T00:25:45.135Z,999.18
2019-04-25T00:26:41.510Z,999.20
2019-04-25T00:27:43.276Z,999.19
2019-04-25T00:28:43.532Z,999.17
2019-04-25T00:29:43.431Z,999.21
2019-04-25T00:30:42.629Z,999.30
2019-04-25T00:31:43.274Z,999.37
2019-04-25T00:32:42.135Z,999.42
2019-04-25T00:33:42.006Z,999.48
2019-04-25T00:34:43.202Z,999.55
2019-04-25T00:35:42.535Z,999.56
2019-04-25T00:36:43.033Z,999.64
2019-04-25T00:37:43.063Z,999.65
2019-04-25T00:38:42.917Z,999.59
2019-04-25T00:39:41.202Z,999.59
2019-04-25T00:40:42.715Z,999.60
2019-04-25T00:41:42.371Z,999.65
2019-04-25T00:42:42.795Z,999.63
2019-04-25T00:43:42.175Z,999.63
2019-04-25T00:44:43.521Z,999.65
2019-04-25T00:45:42.408Z,999.68
2019-04-25T00:46:43.297Z,999.74
2019-04-25T00:47:42.469Z,999.72
2019-04-25T00:48:42.365Z,999.72
2019-04-25T00:49:42.165Z,999.71
2019-04-25T00:50:42.465Z,999.69
2019-04-25T00:51:41.838Z,999.71
2019-04-25T00:52:42.424Z,999.70
2019-04-25T00:53:41.824Z,999.68
2019-04-25T00:54:41.411Z,999.72
2019-04-25T00:55:41.410Z,999.69
2019-04-25T00:56:43.284Z,999.75
2019-04-25T00:57:41.816Z,999.73
2019-04-25T00:58:40.282Z,999.70
2019-04-25T00:59:41.862Z,999.70
2019-04-25T01:00:41.565Z,999.67
2019-04-25T01:01:41.388Z,999.68
2019-04-25T01:02:40.218Z,999.66
2019-04-25T01:03:40.201Z,999.63
2019-04-25T01:04:41.841Z,999.58
2019-04-25T01:05:40.166Z,999.61
2019-04-25T01:06:41.636Z,999.64
2019-04-25T01:07:40.134Z,999.67
2019-04-25T01:08:41.503Z,999.68
2019-04-25T01:09:40.102Z,999.67
2019-04-25T01:10:41.540Z,999.65
2019-04-25T01:11:40.071Z,999.66
2019-04-25T01:12:41.613Z,999.61
2019-04-25T01:13:40.035Z,999.61
2019-04-25T01:14:41.864Z,999.55
2019-04-25T01:15:40.003Z,999.55
2019-04-25T01:16:40.329Z,999.51
2019-04-25T01:17:41.331Z,999.53
2019-04-25T01:18:39.953Z,999.49
2019-04-25T01:19:39.937Z,999.53
2019-04-25T01:20:39.922Z,999.51
2019-04-25T01:21:39.915Z,999.38
2019-04-25T01:22:39.887Z,999.39
2019-04-25T01:23:39.871Z,999.31
2019-04-25T01:24:39.864Z,999.33
2019-04-25T01:25:42.476Z,999.33
2019-04-25T01:26:39.836Z,999.28
2019-04-25T01:27:39.809Z,999.25
2019-04-25T01:28:39.788Z,999.22
2019-04-25T01:29:39.771Z,999.20
2019-04-25T01:30:40.362Z,999.14
2019-04-25T01:31:39.795Z,999.16
2019-04-25T01:32:39.728Z,999.12
2019-04-25T01:33:39.710Z,999.14
2019-04-25T01:34:39.689Z,999.14
2019-04-25T01:35:39.700Z,999.14
2019-04-25T01:36:39.657Z,999.14
2019-04-25T01:37:39.642Z,999.17
2019-04-25T01:38:39.623Z,999.17
2019-04-25T01:39:39.613Z,999.15
2019-04-25T01:40:39.589Z,999.13
2019-04-25T01:41:39.573Z,999.10
2019-04-25T01:42:39.570Z,999.11
2019-04-25T01:43:39.542Z,999.09
2019-04-25T01:44:39.522Z,999.13
2019-04-25T01:45:39.506Z,999.17
2019-04-25T01:46:39.491Z,999.19
2019-04-25T01:47:39.473Z,999.19
2019-04-25T01:48:39.458Z,999.23
2019-04-25T01:49:39.441Z,999.22
2019-04-25T01:50:39.422Z,999.23
2019-04-25T01:51:39.407Z,999.26
2019-04-25T01:52:39.396Z,999.31
2019-04-25T01:53:39.373Z,999.34
2019-04-25T01:54:39.358Z,999.33
2019-04-25T01:55:50.963Z,999.33
2019-04-25T01:56:39.326Z,999.35
2019-04-25T01:57:39.306Z,999.37
2019-04-25T01:58:39.290Z,999.40
2019-04-25T01:59:39.279Z,999.39
2019-04-25T02:00:39.255Z,999.44
2019-04-25T02:01:39.248Z,999.48
2019-04-25T02:02:39.224Z,999.54
2019-04-25T02:03:39.206Z,999.58
2019-04-25T02:04:39.188Z,999.60
2019-04-25T02:05:39.172Z,999.62
2019-04-25T02:06:39.156Z,999.65
2019-04-25T02:07:39.138Z,999.66
2019-04-25T02:08:39.121Z,999.74
2019-04-25T02:09:39.107Z,999.79
2019-04-25T02:10:39.117Z,999.85
2019-04-25T02:11:39.071Z,999.88
2019-04-25T02:12:39.054Z,999.89
2019-04-25T02:13:39.038Z,999.89
2019-04-25T02:14:39.021Z,999.89
2019-04-25T02:15:39.004Z,999.91
2019-04-25T02:16:38.989Z,999.83
2019-04-25T02:17:38.974Z,999.85
2019-04-25T02:18:38.955Z,999.86
2019-04-25T02:19:38.941Z,999.93
2019-04-25T02:20:38.919Z,999.94
2019-04-25T02:21:38.902Z,999.94
2019-04-25T02:22:38.886Z,1000.01
2019-04-25T02:23:38.885Z,999.96
2019-04-25T02:24:38.887Z,999.96
2019-04-25T02:25:38.835Z,999.97
2019-04-25T02:26:38.818Z,1000.03
2019-04-25T02:27:38.804Z,1000.03
2019-04-25T02:28:38.783Z,1000.08
2019-04-25T02:29:38.768Z,1000.12
2019-04-25T02:30:38.762Z,1000.16
2019-04-25T02:31:38.736Z,1000.16
2019-04-25T02:32:38.716Z,1000.21
2019-04-25T02:33:38.700Z,1000.19
2019-04-25T02:34:38.684Z,1000.13
2019-04-25T02:35:42.783Z,1000.12
2019-04-25T02:36:38.661Z,1000.13
2019-04-25T02:37:38.632Z,1000.10
2019-04-25T02:38:38.617Z,1000.11
2019-04-25T02:39:38.599Z,1000.11
2019-04-25T02:40:38.582Z,1000.11
2019-04-25T02:41:38.564Z,1000.12
2019-04-25T02:42:38.550Z,1000.11
2019-04-25T02:43:38.532Z,1000.10
2019-04-25T02:44:38.514Z,1000.15
2019-04-25T02:45:38.499Z,1000.18
2019-04-25T02:46:38.481Z,1000.19
2019-04-25T02:47:38.465Z,1000.14
2019-04-25T02:48:38.447Z,1000.08
2019-04-25T02:49:39.686Z,1000.04
2019-04-25T02:50:38.413Z,1000.03
2019-04-25T02:51:38.429Z,1000.02
2019-04-25T02:52:38.396Z,1000.03
2019-04-25T02:53:38.364Z,999.95
2019-04-25T02:54:38.344Z,999.93
2019-04-25T02:55:38.333Z,999.88
2019-04-25T02:56:38.993Z,999.84
2019-04-25T02:57:38.312Z,999.87
2019-04-25T02:58:38.278Z,999.91
2019-04-25T02:59:38.260Z,999.90
2019-04-25T03:00:51.882Z,999.92
2019-04-25T03:01:38.231Z,999.91
2019-04-25T03:02:38.209Z,999.94
2019-04-25T03:03:38.191Z,999.93
2019-04-25T03:04:38.175Z,999.94
2019-04-25T03:05:38.175Z,999.90
2019-04-25T03:06:38.143Z,999.93
2019-04-25T03:07:38.136Z,999.97
2019-04-25T03:08:38.106Z,999.95
2019-04-25T03:09:38.095Z,999.92
2019-04-25T03:10:38.071Z,999.90
2019-04-25T03:11:38.054Z,999.87
2019-04-25T03:12:38.056Z,999.89
2019-04-25T03:13:38.022Z,999.91
2019-04-25T03:14:38.022Z,999.90
2019-04-25T03:15:37.988Z,999.96
2019-04-25T03:16:37.973Z,999.96
2019-04-25T03:17:37.952Z,999.96
2019-04-25T03:18:37.936Z,999.95
2019-04-25T03:19:37.923Z,999.96
2019-04-25T03:20:37.899Z,999.94
2019-04-25T03:21:37.884Z,999.93
2019-04-25T03:22:37.868Z,999.92
2019-04-25T03:23:37.851Z,999.90
2019-04-25T03:24:37.838Z,999.89
2019-04-25T03:25:37.819Z,999.90
2019-04-25T03:26:40.543Z,999.92
2019-04-25T03:27:37.784Z,999.92
2019-04-25T03:28:37.772Z,999.94
2019-04-25T03:29:37.745Z,999.91
2019-04-25T03:30:37.729Z,999.91
2019-04-25T03:31:37.716Z,999.90
2019-04-25T03:32:40.470Z,999.86
2019-04-25T03:33:38.575Z,999.86
2019-04-25T03:34:37.661Z,999.87
2019-04-25T03:35:37.643Z,999.80
2019-04-25T03:36:37.625Z,999.80
2019-04-25T03:37:37.624Z,999.82
2019-04-25T03:38:37.592Z,999.87
2019-04-25T03:39:37.575Z,999.90
2019-04-25T03:40:37.559Z,999.92
2019-04-25T03:41:37.541Z,999.95
2019-04-25T03:42:37.523Z,999.97
2019-04-25T03:43:37.505Z,1000.00
2019-04-25T03:44:37.490Z,1000.00
2019-04-25T03:45:37.470Z,999.96
2019-04-25T03:46:37.967Z,999.97
2019-04-25T03:47:37.436Z,999.96
2019-04-25T03:48:37.420Z,1000.00
2019-04-25T03:49:37.403Z,999.98
2019-04-25T03:50:37.387Z,1000.05
2019-04-25T03:51:37.368Z,1000.09
2019-04-25T03:52:37.352Z,1000.10
2019-04-25T03:53:37.334Z,1000.12
2019-04-25T03:54:37.315Z,1000.12
2019-04-25T03:55:37.298Z,1000.12
2019-04-25T03:56:37.282Z,1000.13
2019-04-25T03:57:37.272Z,1000.11
2019-04-25T03:58:37.246Z,1000.17
2019-04-25T03:59:37.233Z,1000.14
2019-04-25T04:00:37.212Z,1000.15
2019-04-25T04:01:37.194Z,1000.14
2019-04-25T04:02:37.177Z,1000.12
2019-04-25T04:03:37.164Z,1000.14
2019-04-25T04:04:37.141Z,1000.12
2019-04-25T04:05:37.129Z,1000.12
2019-04-25T04:06:37.108Z,1000.12
2019-04-25T04:07:37.090Z,1000.13
2019-04-25T04:08:37.082Z,1000.15
2019-04-25T04:09:37.056Z,1000.16
2019-04-25T04:10:37.037Z,1000.11
2019-04-25T04:11:37.025Z,1000.13
2019-04-25T04:12:37.002Z,1000.13
2019-04-25T04:13:36.987Z,1000.16
2019-04-25T04:14:36.969Z,1000.14
2019-04-25T04:15:36.955Z,1000.17
2019-04-25T04:16:36.934Z,1000.15
2019-04-25T04:17:36.917Z,1000.15
2019-04-25T04:18:36.900Z,1000.11
2019-04-25T04:19:36.883Z,1000.08
2019-04-25T04:20:36.868Z,1000.07
2019-04-25T04:21:36.856Z,1000.09
2019-04-25T04:22:36.829Z,1000.09
2019-04-25T04:23:36.817Z,1000.10
2019-04-25T04:24:36.834Z,1000.09
2019-04-25T04:25:36.780Z,1000.12
2019-04-25T04:26:36.763Z,1000.18
2019-04-25T04:27:36.743Z,1000.15
2019-04-25T04:28:36.745Z,1000.21
2019-04-25T04:29:36.709Z,1000.21
2019-04-25T04:30:36.690Z,1000.25
2019-04-25T04:31:36.674Z,1000.25
2019-04-25T04:32:36.658Z,1000.25
2019-04-25T04:33:36.639Z,1000.23
2019-04-25T04:34:36.621Z,1000.23
2019-04-25T04:35:36.604Z,1000.21
2019-04-25T04:36:36.586Z,1000.27
2019-04-25T04:37:36.567Z,1000.26
2019-04-25T04:38:36.571Z,1000.28
2019-04-25T04:39:36.536Z,1000.25
2019-04-25T04:40:36.515Z,1000.27
2019-04-25T04:41:36.500Z,1000.27
2019-04-25T04:42:36.482Z,1000.26
2019-04-25T04:43:36.464Z,1000.23
2019-04-25T04:44:36.449Z,1000.25
2019-04-25T04:45:36.432Z,1000.19
2019-04-25T04:46:36.413Z,1000.21
2019-04-25T04:47:36.396Z,1000.21
2019-04-25T04:48:36.378Z,1000.24
2019-04-25T04:49:36.360Z,1000.21
2019-04-25T04:50:36.341Z,1000.19
2019-04-25T04:51:36.328Z,1000.24
2019-04-25T04:52:36.307Z,1000.24
2019-04-25T04:53:36.288Z,1000.26
2019-04-25T04:54:36.271Z,1000.20
2019-04-25T04:55:36.256Z,1000.21
2019-04-25T04:56:36.237Z,1000.18
2019-04-25T04:57:36.437Z,1000.17
2019-04-25T04:58:36.211Z,1000.18
2019-04-25T04:59:36.184Z,1000.16
2019-04-25T05:00:36.168Z,1000.17
2019-04-25T05:01:36.150Z,1000.15
2019-04-25T05:02:36.132Z,1000.19
2019-04-25T05:03:36.115Z,1000.20
2019-04-25T05:04:36.096Z,1000.26
2019-04-25T05:05:36.083Z,1000.25
2019-04-25T05:06:36.065Z,1000.28
2019-04-25T05:07:36.046Z,1000.33
2019-04-25T05:08:36.027Z,1000.28
2019-04-25T05:09:36.011Z,1000.38
2019-04-25T05:10:35.991Z,1000.32
2019-04-25T05:11:35.975Z,1000.37
2019-04-25T05:12:35.956Z,1000.36
2019-04-25T05:13:35.938Z,1000.34
2019-04-25T05:14:35.925Z,1000.35
2019-04-25T05:15:35.910Z,1000.37
2019-04-25T05:16:35.896Z,1000.40
2019-04-25T05:17:35.870Z,1000.41
2019-04-25T05:18:39.570Z,1000.37
2019-04-25T05:19:35.840Z,1000.37
2019-04-25T05:20:35.822Z,1000.35
2019-04-25T05:21:35.805Z,1000.33
2019-04-25T05:22:35.787Z,1000.27
2019-04-25T05:23:35.765Z,1000.30
2019-04-25T05:24:35.747Z,1000.31
2019-04-25T05:25:35.735Z,1000.29
2019-04-25T05:26:35.714Z,1000.28
2019-04-25T05:27:46.319Z,1000.24
2019-04-25T05:28:35.678Z,1000.25
2019-04-25T05:29:35.661Z,1000.26
2019-04-25T05:30:35.645Z,1000.23
2019-04-25T05:31:35.628Z,1000.20
2019-04-25T05:32:35.627Z,1000.22
2019-04-25T05:33:35.593Z,1000.26
2019-04-25T05:34:35.574Z,1000.26
2019-04-25T05:35:35.558Z,1000.24
2019-04-25T05:36:35.542Z,1000.26
2019-04-25T05:37:35.523Z,1000.28
2019-04-25T05:38:35.657Z,1000.32
2019-04-25T05:39:35.489Z,1000.34
2019-04-25T05:40:35.582Z,1000.38
2019-04-25T05:41:35.973Z,1000.41
2019-04-25T05:42:35.440Z,1000.42
2019-04-25T05:43:35.418Z,1000.41
2019-04-25T05:44:35.401Z,1000.41
2019-04-25T05:45:35.382Z,1000.44
2019-04-25T05:46:35.367Z,1000.46
2019-04-25T05:47:35.349Z,1000.42
2019-04-25T05:48:35.333Z,1000.47
2019-04-25T05:49:35.314Z,1000.47
2019-04-25T05:50:35.297Z,1000.51
2019-04-25T05:51:35.284Z,1000.50
2019-04-25T05:52:35.261Z,1000.50
2019-04-25T05:53:35.244Z,1000.52
2019-04-25T05:54:35.228Z,1000.56
2019-04-25T05:55:35.227Z,1000.58
2019-04-25T05:56:35.197Z,1000.64
2019-04-25T05:57:45.501Z,1000.65
2019-04-25T05:58:35.161Z,1000.62
2019-04-25T05:59:35.142Z,1000.68
2019-04-25T06:00:35.124Z,1000.68
2019-04-25T06:01:35.816Z,1000.71
2019-04-25T06:02:35.098Z,1000.75
2019-04-25T06:03:35.074Z,1000.75
2019-04-25T06:06:07.152Z,1000.77
2019-04-25T06:07:07.109Z,1000.75
2019-04-25T06:09:00.474Z,1000.77
2019-04-25T06:10:00.451Z,1000.82
2019-04-25T06:11:53.820Z,1000.82
2019-04-25T06:12:53.803Z,1000.79
2019-04-25T06:14:48.126Z,1000.85
2019-04-25T06:15:48.107Z,1000.84
2019-04-25T06:17:41.469Z,1000.86
2019-04-25T06:18:41.430Z,1000.89
2019-04-25T06:20:34.771Z,1000.89
2019-04-25T06:21:34.748Z,1000.89
2019-04-25T06:23:28.921Z,1000.84
2019-04-25T06:24:28.072Z,1000.80
2019-04-25T06:26:30.767Z,1000.79
2019-04-25T06:27:22.087Z,1000.77
2019-04-25T06:29:14.744Z,1000.73
2019-04-25T06:30:15.798Z,1000.74
2019-04-25T06:32:08.626Z,1000.68
2019-04-25T06:33:08.045Z,1000.66
2019-04-25T06:35:04.107Z,1000.71
2019-04-25T06:36:04.093Z,1000.74
2019-04-25T06:37:55.745Z,1000.69
2019-04-25T06:38:55.693Z,1000.78
2019-04-25T06:40:50.039Z,1000.85
2019-04-25T06:41:50.017Z,1000.93
2019-04-25T06:43:44.253Z,1000.95
2019-04-25T06:44:43.661Z,1000.91
2019-04-25T06:46:37.774Z,1000.89
2019-04-25T06:47:37.730Z,1000.90
2019-04-25T06:49:35.965Z,1000.87
2019-04-25T06:50:33.730Z,1000.88
2019-04-25T06:51:32.090Z,1000.89
2019-04-25T06:52:32.196Z,1000.86
2019-04-25T06:53:34.460Z,1000.85
2019-04-25T06:54:33.516Z,1000.87
2019-04-25T06:55:32.776Z,1000.89
2019-04-25T06:56:33.121Z,1000.87
2019-04-25T06:57:32.092Z,1000.90
2019-04-25T06:58:32.308Z,1000.90
2019-04-25T06:59:33.952Z,1000.97
2019-04-25T07:00:39.107Z,1000.97
2019-04-25T07:01:32.750Z,1000.98
2019-04-25T07:02:31.850Z,1000.98
2019-04-25T07:03:31.833Z,1001.01
2019-04-25T07:04:33.669Z,1001.00
2019-04-25T07:05:35.857Z,1001.05
2019-04-25T07:06:33.573Z,1001.04
2019-04-25T07:07:31.767Z,1001.04
2019-04-25T07:08:31.752Z,1001.04
2019-04-25T07:09:34.520Z,1000.98
2019-04-25T07:10:33.570Z,1000.98
2019-04-25T07:11:32.879Z,1001.00
2019-04-25T07:12:33.018Z,1000.97
2019-04-25T07:13:34.184Z,1000.95
2019-04-25T07:14:31.654Z,1000.99
2019-04-25T07:15:32.362Z,1000.97
2019-04-25T07:16:33.508Z,1001.00
2019-04-25T07:17:31.604Z,1000.98
2019-04-25T07:18:33.748Z,1001.00
2019-04-25T07:19:32.077Z,1001.03
2019-04-25T07:20:32.756Z,1001.05
2019-04-25T07:21:32.346Z,1001.02
2019-04-25T07:22:31.523Z,1001.01
2019-04-25T07:23:32.848Z,1001.01
2019-04-25T07:24:31.518Z,1001.05
2019-04-25T07:25:31.511Z,1001.08
2019-04-25T07:26:34.962Z,1001.06
2019-04-25T07:27:31.441Z,1001.07
2019-04-25T07:28:32.376Z,1001.12
2019-04-25T07:29:31.410Z,1001.09
2019-04-25T07:30:42.106Z,1001.07
2019-04-25T07:31:31.378Z,1000.98
2019-04-25T07:32:31.362Z,1000.99
2019-04-25T07:33:31.346Z,1000.97
2019-04-25T07:34:32.091Z,1000.88
2019-04-25T07:35:31.313Z,1000.90
2019-04-25T07:36:31.296Z,1000.89
2019-04-25T07:37:31.283Z,1000.90
2019-04-25T07:38:31.278Z,1000.92
2019-04-25T07:39:32.467Z,1000.92
2019-04-25T07:40:31.809Z,1000.91
2019-04-25T07:41:31.482Z,1000.91
2019-04-25T07:42:31.802Z,1000.94
2019-04-25T07:43:32.296Z,1000.89
2019-04-25T07:44:41.922Z,1000.97
2019-04-25T07:45:31.153Z,1000.91
2019-04-25T07:46:32.770Z,1001.02
2019-04-25T07:47:31.427Z,1001.08
2019-04-25T07:48:32.087Z,1001.06
2019-04-25T07:49:31.091Z,1001.04
2019-04-25T07:50:31.074Z,1001.05
2019-04-25T07:51:31.056Z,1001.06
2019-04-25T07:52:31.041Z,1001.09
2019-04-25T07:53:31.574Z,1001.12
2019-04-25T07:54:31.015Z,1001.17
2019-04-25T07:55:31.103Z,1001.16
2019-04-25T07:56:31.407Z,1001.23
2019-04-25T07:57:31.247Z,1001.21
2019-04-25T07:58:45.341Z,1001.28
2019-04-25T07:59:31.034Z,1001.34
2019-04-25T08:00:31.374Z,1001.39
2019-04-25T08:01:31.107Z,1001.37
2019-04-25T08:02:30.884Z,1001.42
2019-04-25T08:03:30.869Z,1001.42
2019-04-25T08:04:31.783Z,1001.43
2019-04-25T08:05:32.107Z,1001.36
2019-04-25T08:06:31.287Z,1001.47
2019-04-25T08:07:31.627Z,1001.42
2019-04-25T08:08:31.790Z,1001.33
2019-04-25T08:09:31.488Z,1001.39
2019-04-25T08:10:30.785Z,1001.35
2019-04-25T08:11:30.750Z,1001.38
2019-04-25T08:12:30.724Z,1001.42
2019-04-25T08:13:30.709Z,1001.33
2019-04-25T08:14:30.694Z,1001.30
2019-04-25T08:15:30.709Z,1001.34
2019-04-25T08:16:31.091Z,1001.29
2019-04-25T08:17:30.673Z,1001.32
2019-04-25T08:18:30.633Z,1001.35
2019-04-25T08:19:31.046Z,1001.34
2019-04-25T08:20:30.618Z,1001.36
2019-04-25T08:21:30.663Z,1001.30
2019-04-25T08:22:30.579Z,1001.40
2019-04-25T08:23:33.099Z,1001.38
2019-04-25T08:24:30.790Z,1001.35
2019-04-25T08:25:30.806Z,1001.45
2019-04-25T08:26:31.156Z,1001.41
2019-04-25T08:27:31.155Z,1001.45
2019-04-25T08:28:30.498Z,1001.42
2019-04-25T08:29:30.788Z,1001.47
2019-04-25T08:30:31.398Z,1001.43
2019-04-25T08:31:31.265Z,1001.36
2019-04-25T08:32:30.930Z,1001.36
2019-04-25T08:33:30.397Z,1001.37
2019-04-25T08:34:30.990Z,1001.34
2019-04-25T08:35:30.376Z,1001.37
2019-04-25T08:36:31.168Z,1001.39
2019-04-25T08:37:30.435Z,1001.37
2019-04-25T08:38:31.424Z,1001.43
2019-04-25T08:39:30.440Z,1001.43
2019-04-25T08:40:30.294Z,1001.47
2019-04-25T08:41:30.969Z,1001.48
2019-04-25T08:42:30.258Z,1001.45
2019-04-25T08:43:30.937Z,1001.45
2019-04-25T08:44:30.229Z,1001.49
2019-04-25T08:45:30.646Z,1001.50
2019-04-25T08:46:30.196Z,1001.55
2019-04-25T08:47:30.470Z,1001.47
2019-04-25T08:48:30.480Z,1001.47
2019-04-25T08:49:30.391Z,1001.46
2019-04-25T08:50:33.205Z,1001.48
2019-04-25T08:51:31.423Z,1001.46
2019-04-25T08:52:30.938Z,1001.52
2019-04-25T08:53:30.092Z,1001.48
2019-04-25T08:54:31.033Z,1001.44
2019-04-25T08:55:30.058Z,1001.51
2019-04-25T08:56:30.057Z,1001.44
2019-04-25T08:57:30.028Z,1001.49
2019-04-25T08:58:30.061Z,1001.54
2019-04-25T08:59:37.337Z,1001.47
2019-04-25T09:00:29.984Z,1001.53
2019-04-25T09:01:29.970Z,1001.46
2019-04-25T09:02:29.984Z,1001.46
2019-04-25T09:03:29.941Z,1001.46
2019-04-25T09:04:29.921Z,1001.48
2019-04-25T09:05:29.946Z,1001.52
2019-04-25T09:06:29.892Z,1001.53
2019-04-25T09:07:29.875Z,1001.46
2019-04-25T09:08:29.874Z,1001.63
2019-04-25T09:09:29.923Z,1001.57
2019-04-25T09:10:29.867Z,1001.54
2019-04-25T09:11:32.406Z,1001.50
2019-04-25T09:12:29.827Z,1001.49
2019-04-25T09:13:29.783Z,1001.53
2019-04-25T09:14:29.770Z,1001.53
2019-04-25T09:15:29.753Z,1001.58
2019-04-25T09:16:29.737Z,1001.57
2019-04-25T09:17:29.724Z,1001.57
2019-04-25T09:18:29.708Z,1001.52
2019-04-25T09:19:29.692Z,1001.53
2019-04-25T09:20:29.677Z,1001.53
2019-04-25T09:21:29.662Z,1001.54
2019-04-25T09:22:29.648Z,1001.53
2019-04-25T09:23:29.631Z,1001.58
2019-04-25T09:24:29.619Z,1001.62
2019-04-25T09:25:29.601Z,1001.60
2019-04-25T09:26:29.603Z,1001.67
2019-04-25T09:27:29.570Z,1001.67
2019-04-25T09:28:29.558Z,1001.64
2019-04-25T09:29:29.543Z,1001.65
2019-04-25T09:30:29.526Z,1001.69
2019-04-25T09:31:29.510Z,1001.64
2019-04-25T09:32:29.495Z,1001.72
2019-04-25T09:33:29.480Z,1001.70
2019-04-25T09:34:29.466Z,1001.69
2019-04-25T09:35:29.449Z,1001.71
2019-04-25T09:36:29.442Z,1001.74
2019-04-25T09:37:29.421Z,1001.58
2019-04-25T09:38:29.406Z,1001.70
2019-04-25T09:39:29.390Z,1001.71
2019-04-25T09:40:29.374Z,1001.70
2019-04-25T09:41:29.379Z,1001.73
2019-04-25T09:42:29.349Z,1001.77
2019-04-25T09:43:29.344Z,1001.74
2019-04-25T09:44:29.320Z,1001.69
2019-04-25T09:45:29.301Z,1001.68
2019-04-25T09:46:29.285Z,1001.67
2019-04-25T09:47:29.277Z,1001.71
2019-04-25T09:48:29.258Z,1001.72
2019-04-25T09:49:29.243Z,1001.72
2019-04-25T09:50:29.232Z,1001.72
2019-04-25T09:51:29.211Z,1001.70
2019-04-25T09:52:29.196Z,1001.82
2019-04-25T09:53:29.181Z,1001.67
2019-04-25T09:54:29.185Z,1001.69
2019-04-25T09:55:29.151Z,1001.70
2019-04-25T09:56:29.139Z,1001.77
2019-04-25T09:57:29.126Z,1001.65
2019-04-25T09:58:29.108Z,1001.74
2019-04-25T09:59:30.136Z,1001.65
2019-04-25T10:00:29.082Z,1001.76
2019-04-25T10:01:29.063Z,1001.66
2019-04-25T10:02:29.050Z,1001.71
2019-04-25T10:03:29.034Z,1001.70
2019-04-25T10:04:29.019Z,1001.72
2019-04-25T10:05:29.004Z,1001.66
2019-04-25T10:06:29.001Z,1001.66
2019-04-25T10:07:28.975Z,1001.73
2019-04-25T10:08:28.960Z,1001.61
2019-04-25T10:09:28.947Z,1001.65
2019-04-25T10:10:28.931Z,1001.68
2019-04-25T10:11:28.921Z,1001.72
2019-04-25T10:12:28.905Z,1001.74
2019-04-25T10:13:28.890Z,1001.74
2019-04-25T10:14:28.874Z,1001.71
2019-04-25T10:15:28.858Z,1001.78
2019-04-25T10:16:28.842Z,1001.76
2019-04-25T10:17:28.828Z,1001.73
2019-04-25T10:18:28.814Z,1001.80
2019-04-25T10:19:28.800Z,1001.78
2019-04-25T10:20:28.789Z,1001.78
2019-04-25T10:21:28.780Z,1001.80
2019-04-25T10:22:28.756Z,1001.83
2019-04-25T10:23:28.749Z,1001.80
2019-04-25T10:24:28.726Z,1001.79
2019-04-25T10:25:28.713Z,1001.76
2019-04-25T10:26:28.701Z,1001.83
2019-04-25T10:27:28.684Z,1001.80
2019-04-25T10:28:28.668Z,1001.87
2019-04-25T10:29:39.355Z,1001.81
2019-04-25T10:30:28.641Z,1001.79
2019-04-25T10:31:28.632Z,1001.85
2019-04-25T10:32:28.611Z,1001.92
2019-04-25T10:33:28.598Z,1001.94
2019-04-25T10:34:28.586Z,1001.94
2019-04-25T10:35:28.566Z,1001.89
2019-04-25T10:36:28.561Z,1001.89
2019-04-25T10:37:28.555Z,1001.87
2019-04-25T10:38:28.529Z,1001.91
2019-04-25T10:39:28.575Z,1001.98
2019-04-25T10:40:28.494Z,1001.95
2019-04-25T10:41:28.484Z,1001.93
2019-04-25T10:42:28.471Z,1001.83
2019-04-25T10:43:28.451Z,1001.89
2019-04-25T10:44:28.436Z,1001.85
2019-04-25T10:45:28.423Z,1001.87
2019-04-25T10:46:28.408Z,1001.86
2019-04-25T10:47:28.391Z,1001.92
2019-04-25T10:48:28.381Z,1002.00
2019-04-25T10:49:28.362Z,1001.82
2019-04-25T10:50:28.349Z,1001.75
2019-04-25T10:51:28.336Z,1001.83
2019-04-25T10:52:28.319Z,1001.77
2019-04-25T10:53:28.306Z,1001.76
2019-04-25T10:54:28.289Z,1001.72
2019-04-25T10:55:28.279Z,1001.69
2019-04-25T10:56:28.277Z,1001.59
2019-04-25T10:57:28.245Z,1001.53
2019-04-25T10:58:28.242Z,1001.55
2019-04-25T10:59:28.215Z,1001.53
2019-04-25T11:00:28.336Z,1001.62
2019-04-25T11:01:28.188Z,1001.60
2019-04-25T11:02:28.173Z,1001.55
2019-04-25T11:03:28.168Z,1001.50
2019-04-25T11:04:28.145Z,1001.49
2019-04-25T11:05:28.146Z,1001.47
2019-04-25T11:06:28.133Z,1001.43
2019-04-25T11:07:28.125Z,1001.44
2019-04-25T11:08:28.087Z,1001.42
2019-04-25T11:09:28.081Z,1001.41
2019-04-25T11:10:28.059Z,1001.43
2019-04-25T11:11:28.044Z,1001.33
2019-04-25T11:12:28.062Z,1001.28
2019-04-25T11:13:28.022Z,1001.40
2019-04-25T11:14:28.043Z,1001.30
2019-04-25T11:15:28.093Z,1001.28
2019-04-25T11:16:27.975Z,1001.30
2019-04-25T11:17:27.965Z,1001.34
2019-04-25T11:18:27.947Z,1001.24
2019-04-25T11:19:27.930Z,1001.24
2019-04-25T11:20:27.916Z,1001.31
2019-04-25T11:21:27.900Z,1001.36
2019-04-25T11:22:27.889Z,1001.37
2019-04-25T11:23:27.928Z,1001.34
2019-04-25T11:24:28.030Z,1001.35
2019-04-25T11:25:27.846Z,1001.23
2019-04-25T11:26:27.833Z,1001.24
2019-04-25T11:27:27.817Z,1001.22
2019-04-25T11:28:27.807Z,1001.11
2019-04-25T11:29:27.792Z,1001.21
2019-04-25T11:30:27.777Z,1001.15
2019-04-25T11:31:27.764Z,1001.13
2019-04-25T11:32:27.751Z,1001.12
2019-04-25T11:33:27.743Z,1001.23
2019-04-25T11:34:27.733Z,1001.14
2019-04-25T11:35:27.718Z,1001.12
2019-04-25T11:36:27.701Z,1001.03
2019-04-25T11:37:27.690Z,1001.06
2019-04-25T11:38:27.680Z,1001.06
2019-04-25T11:39:27.665Z,1001.03
2019-04-25T11:40:27.713Z,1001.03
2019-04-25T11:41:27.644Z,1000.97
2019-04-25T11:42:27.636Z,1001.02
2019-04-25T11:43:27.627Z,1000.98
2019-04-25T11:44:27.613Z,1001.01
2019-04-25T11:45:27.602Z,1001.04
2019-04-25T11:46:27.598Z,1001.12
2019-04-25T11:47:27.585Z,1000.95
2019-04-25T11:48:27.588Z,1001.10
2019-04-25T11:49:27.567Z,1001.01
2019-04-25T11:50:27.555Z,1001.14
2019-04-25T11:51:27.544Z,1000.87
2019-04-25T11:52:30.271Z,1000.92
2019-04-25T11:53:27.526Z,1000.90
2019-04-25T11:54:27.522Z,1000.95
2019-04-25T11:55:27.607Z,1001.01
2019-04-25T11:56:27.505Z,1000.95
2019-04-25T11:57:27.496Z,1000.96
2019-04-25T11:58:27.482Z,1001.08
2019-04-25T11:59:27.495Z,1001.02
2019-04-25T12:00:27.467Z,1000.91
2019-04-25T12:01:27.458Z,1000.94
2019-04-25T12:02:27.445Z,1000.99
2019-04-25T12:03:27.435Z,1001.02
2019-04-25T12:04:27.428Z,1000.99
2019-04-25T12:05:27.418Z,1001.05
2019-04-25T12:06:27.408Z,1001.01
2019-04-25T12:07:27.397Z,1001.00
2019-04-25T12:08:27.388Z,1001.00
2019-04-25T12:09:27.380Z,1000.97
2019-04-25T12:10:27.368Z,1000.96
2019-04-25T12:11:27.416Z,1001.03
2019-04-25T12:12:27.354Z,1001.01
2019-04-25T12:13:27.338Z,1001.04
2019-04-25T12:14:27.381Z,1000.99
2019-04-25T12:15:27.317Z,1001.05
2019-04-25T12:16:27.306Z,1001.02
2019-04-25T12:17:27.301Z,1001.03
2019-04-25T12:18:27.288Z,1000.99
2019-04-25T12:19:35.748Z,1001.06
2019-04-25T12:20:27.264Z,1001.00
2019-04-25T12:21:27.266Z,1001.01
2019-04-25T12:22:27.242Z,1000.99
2019-04-25T12:23:27.231Z,1001.02
2019-04-25T12:24:27.220Z,1001.08
2019-04-25T12:25:27.206Z,1001.07
2019-04-25T12:26:27.204Z,1001.10